Terlet Airfield

EHTL · Gelderland, 荷兰

2022年10月1日 23:002022年10月2日 11:00有效
时间
星期六
23:00
30%
星期日
00:00
30%
星期日
01:00
30%
星期日
02:00
30%
星期日
03:00
30%
星期日
04:00
30%
星期日
05:00
星期日
06:00
星期日
07:00
星期日
08:00
星期日
09:00
星期日
10:00
代码
LIFR
LIFR
LIFR
LIFR
LIFR
LIFR
VFR
VFR
VFR
VFR
VFR
VFR
天气
天空晴朗
天空晴朗
天空晴朗
天空晴朗
天空晴朗
天空晴朗
天空晴朗
天空晴朗
天空晴朗
天空晴朗
天空晴朗
天空晴朗
能见度
10 km+
10 km+
10 km+
10 km+
10 km+
10 km+
10 km+
10 km+
10 km+
10 km+
10 km+
10 km+
天花板
-
-
-
-
-
-
-
-
-
-
-
-
240°
240°
240°
240°
240°
240°
240°
240°
240°
240°
240°
240°
240°
240°
240°
240°
240°
240°
240°
240°
240°
240°
240°
240°
速度
7 kt
7 kt
7 kt
7 kt
7 kt
7 kt
7 kt
7 kt
7 kt
7 kt
7 kt
7 kt
阵风
温度/星期日

原版的

TAF EHVK 012055Z 0121/0209 24007KT CAVOK
PROB30 TEMPO 0120/0203 SCT020CB

TAF Terlet Airfield

Terlet Airfield是Arnhem,荷兰中的格利德菲尔德。 该机场有7条跑道: 4C/22C, 4L/22R, 4R/22L, 12/30, 14L/32R, 14R/32L 和 14/32. 该领域的国际民航组织标志是EHTL.

这份报告是针对2022年10月1日 22:55, 当地时间在Volkel Air Base进行的。 从2022年10月1日 23:00到2022年10月2日 11:00, 当地时间有效.

预报

  • 在星期六 23:00和星期日 11:00之间

    • 风: 风来自240°方向,速度为7 kt。
    • CAVOK: 天气为CAVOK。这意味着在5.000 ft或MSA(最低安全高度)以下(以较高者为准)以下没有云。这也意味着没有观测到积雨云或高耸的积云,可见度为10 km 或者更多或更高。此外,不会有雾,降雨或其他重要天气。

  • 暂时在星期六 22:00和星期日 05:00之间 ({一个机会)

    • 乌云: 疏云,零星散落的云朵 积雨云在2.000 ft的高度.

白天

今天,太阳从07:39升起,在19:12降落。 这适用于Terlet Airfield,世界夏令时可能有所不同。 当地时间与世界标准时间之间的时差为+2 小时。 夏令时目前正在进行中。

我们和第三方通过cookies跟踪您在我们网站上的上网行为。如果您继续,我们认为您同意我们的cookie政策。 了解更多